CheckWX is a tool to help pilots better visualize weather data.  It is not intended as a substitute for an official pre-flight weather briefing.

01:11:36 UTC

KJCA METAR
Jackson County Airport
Jefferson, Georgia, USA
Current

37 mins ago

KJCA 200035Z AUTO 21004KT 10SM -RA SCT100 SCT120 24/22 A3005 RMK AO2 LTG DSNT E T02440224
Observed
Jul-20 @ 00:35 UTC
Wind
  • 210° at 4 KTS
Visibility
10 SM
Flight Rules
VFR
Conditions
Light Rain
Cloud Levels
  • Scattered at 10,000' AGL
  • Scattered at 12,000' AGL
Temperature
24°C / 75°F
Dewpoint
22°C / 72°F
Humidity
89%
Altimeter
30.05" Hg
Pressure
1017.62 hPa
Previous

57 mins ago

KJCA 200015Z AUTO 23004KT 10SM -RA SCT080 SCT100 BKN120 25/22 A3006 RMK AO2 T02490222
Observed
Jul-20 @ 00:15 UTC
Wind
  • 230° at 4 KTS
Visibility
10 SM
Flight Rules
VFR
Conditions
Light Rain
Cloud Levels
  • Scattered at 8,000' AGL
  • Scattered at 10,000' AGL
  • Broken at 12,000' AGL
Temperature
25°C / 77°F
Dewpoint
22°C / 72°F
Humidity
83%
Altimeter
30.06" Hg
Pressure
1017.92 hPa
Previous

1 hour ago

KJCA 192355Z AUTO 23004KT 10SM SCT080 SCT110 25/22 A3006 RMK AO2 T02520221 10332 20252 403320232
Observed
Jul-19 @ 23:55 UTC
Wind
  • 230° at 4 KTS
Visibility
10 SM
Flight Rules
VFR
Cloud Levels
  • Scattered at 8,000' AGL
  • Scattered at 11,000' AGL
Temperature
25°C / 77°F
Dewpoint
22°C / 72°F
Humidity
83%
Altimeter
30.06" Hg
Pressure
1017.92 hPa